Capetan Giannos — SW9281 — position and weather

sailwx.info

Track history (hours):
 
Tides and Currents Weather Stations Pressure Air Temp Water Temp Dewpoint Dewpoint Depression Visibility Wind Speed Wind Dir Waves Ship Positions

Capetan Giannos

Last reported at 2017-Sep-24 12:02 UTC. Time now 2017-Oct-19 05:46 UTC.
Position N 39°57' E 024°01'.
Warning: this ship's position is 24 days out of date.

Length 26 m; draft 2.5 m.

Type: Fishing. MMSI: 237168000.

Date/timePositionNaut miles runAvg speedWind from/ knotsBaromVisibWave heightAir tempDewpointWater temp
2017-Sep-24 12:02N 39°57' E 024°01'010.3
2017-Sep-24 12:01N 39°58' E 024°02'510.1
2017-Sep-24 11:30N 40°01' E 024°07'5 9.7
2017-Sep-24 11:00N 40°03' E 024°12'12 8.8
2017-Sep-24 09:41N 40°10' E 024°24'2 9.9
2017-Sep-24 09:31N 40°12' E 024°24'5 9.7
2017-Sep-24 09:00N 40°17' E 024°23'5 9.9
2017-Sep-24 08:31N 40°22' E 024°23'1310.0
2017-Sep-24 07:13N 40°35' E 024°20'4 9.0
2017-Sep-24 06:48N 40°39' E 024°20'3 9.4
2017-Sep-24 06:30N 40°41' E 024°21'5 9.9
2017-Sep-24 06:00N 40°46' E 024°21'4 9.1
2017-Sep-24 05:30N 40°51' E 024°19'0 0.2
2017-Sep-24 04:44N 40°51' E 024°19'1 3.9
2017-Sep-24 04:31N 40°50' E 024°20'5 9.2
2017-Sep-24 04:01N 40°46' E 024°22'5 9.8
2017-Sep-24 03:30N 40°41' E 024°23'3 6.6
2017-Sep-24 03:00N 40°38' E 024°24'0 0.4
2017-Sep-24 02:30N 40°38' E 024°24'0 0.5
2017-Sep-24 02:00N 40°37' E 024°24'0 0.9
2017-Sep-24 01:27N 40°37' E 024°25'0 0.0
2017-Sep-24 00:45N 40°37' E 024°25'0 0.0
2017-Sep-24 00:27N 40°37' E 024°25'0 0.0
2017-Sep-23 23:54N 40°37' E 024°25'0 0.0
2017-Sep-23 23:30N 40°37' E 024°25'0 0.0
2017-Sep-23 22:36N 40°37' E 024°25'0 0.0
2017-Sep-23 22:24N 40°37' E 024°25'0 0.0
2017-Sep-23 21:54N 40°37' E 024°25'0 0.0
2017-Sep-23 21:27N 40°37' E 024°25'0 0.0
2017-Sep-23 20:54N 40°37' E 024°25'  
2017-Sep-20 18:39N 40°33' E 023°59'0 1.1
2017-Sep-20 18:30N 40°33' E 023°59'0 0.1
2017-Sep-20 17:50N 40°33' E 023°59'0 1.2
2017-Sep-20 17:30N 40°33' E 023°59'5 9.4
2017-Sep-20 16:57N 40°28' E 023°56'4 9.5
2017-Sep-20 16:30N 40°24' E 023°54'5 0.3
2017-Sep-19 23:06N 40°23' E 023°60'0 2.1
2017-Sep-19 22:59N 40°23' E 023°60'3 5.7
2017-Sep-19 22:30N 40°23' E 023°56'1 2.0
2017-Sep-19 21:59N 40°23' E 023°57'1 2.1
2017-Sep-19 21:30N 40°24' E 023°58'5 9.9
2017-Sep-19 21:00N 40°29' E 023°59'4 6.6
2017-Sep-19 20:24N 40°32' E 023°60'0 0.2
2017-Sep-19 19:54N 40°33' E 023°59'0 0.1
2017-Sep-19 19:30N 40°32' E 023°59'0 0.7
2017-Sep-19 18:49N 40°32' E 023°59'0 0.0
2017-Sep-19 18:13N 40°32' E 023°59'0 0.1
2017-Sep-19 17:37N 40°32' E 023°59'0 0.1
2017-Sep-19 17:29N 40°32' E 023°59'0 0.2
2017-Sep-19 17:00N 40°32' E 023°59'5 9.1
2017-Sep-19 16:30N 40°28' E 023°56'5 0.4
2017-Sep-19 03:32N 40°23' E 023°57'1 9.3
2017-Sep-19 03:28N 40°23' E 023°58'0 0.4
2017-Sep-19 02:43N 40°23' E 023°59'0 0.1
2017-Sep-19 00:14N 40°23' E 023°58'0 0.1
2017-Sep-18 23:56N 40°23' E 023°58'0 0.0
2017-Sep-18 23:29N 40°23' E 023°58'0 0.1
2017-Sep-18 22:59N 40°23' E 023°58'0 0.0
2017-Sep-18 22:29N 40°23' E 023°58'0 0.0
2017-Sep-18 21:59N 40°23' E 023°58'0 0.2
2017-Sep-18 21:30N 40°23' E 023°58'5 8.9
2017-Sep-18 21:00N 40°28' E 023°60'5 7.7
2017-Sep-18 20:24N 40°31' E 024°04'0 0.2
2017-Sep-18 20:00N 40°31' E 024°04'1 1.1
2017-Sep-18 19:30N 40°30' E 024°04'0 0.2
2017-Sep-18 19:00N 40°30' E 024°04'0 0.0
2017-Sep-18 18:30N 40°30' E 024°04'0 0.1
2017-Sep-18 18:00N 40°30' E 024°04'1 1.9
2017-Sep-18 17:30N 40°30' E 024°03'510.2
2017-Sep-18 17:00N 40°27' E 023°58'4 8.0
2017-Sep-18 16:29N 40°24' E 023°54'0 0.0
2017-Sep-18 04:25N 40°24' E 023°54'0 0.5
2017-Sep-18 03:59N 40°24' E 023°54'0 0.2
2017-Sep-18 03:30N 40°24' E 023°54'1 1.1
2017-Sep-18 03:00N 40°24' E 023°54'5 9.5
2017-Sep-18 02:31N 40°27' E 023°59'5 9.8
2017-Sep-18 02:00N 40°30' E 024°04'0 0.3
2017-Sep-18 01:22N 40°30' E 024°04'0 0.2
2017-Sep-18 01:01N 40°30' E 024°04'1 0.9
2017-Sep-18 00:26N 40°30' E 024°04'0 0.0
2017-Sep-17 23:53N 40°30' E 024°04'0 0.1
2017-Sep-17 23:30N 40°30' E 024°04'4 8.9
2017-Sep-17 23:01N 40°27' E 023°59'510.4
2017-Sep-17 22:31N 40°24' E 023°54'0 0.9
2017-Sep-17 22:00N 40°24' E 023°54'0 0.0
2017-Sep-17 21:31N 40°24' E 023°54'4 8.5
2017-Sep-17 21:01N 40°27' E 023°58'5 9.8
2017-Sep-17 20:31N 40°30' E 024°03'2 2.9
2017-Sep-17 19:59N 40°31' E 024°04'0 0.2
2017-Sep-17 19:30N 40°30' E 024°04'1 0.9
2017-Sep-17 18:58N 40°30' E 024°04'0 0.0
2017-Sep-17 18:31N 40°30' E 024°04'0 0.0
2017-Sep-17 17:58N 40°30' E 024°04'0 0.9
2017-Sep-17 17:30N 40°30' E 024°05'6 0.3
2017-Sep-16 22:12N 40°25' E 024°09'0 0.0
2017-Sep-16 22:00N 40°25' E 024°09'0 0.0
2017-Sep-16 21:30N 40°25' E 024°09'0 0.0
2017-Sep-16 21:00N 40°25' E 024°09'0 0.0
2017-Sep-16 20:30N 40°25' E 024°09'0 0.0
2017-Sep-16 20:00N 40°25' E 024°09'0 0.0
2017-Sep-16 19:21N 40°25' E 024°09'0 0.0
2017-Sep-16 19:00N 40°25' E 024°09'0 0.0
2017-Sep-16 18:30N 40°25' E 024°09'0 0.0
2017-Sep-16 18:01N 40°25' E 024°09'0 0.5
2017-Sep-16 17:30N 40°25' E 024°09'1 3.0
2017-Sep-16 17:01N 40°26' E 024°07'5 9.5
2017-Sep-16 16:31N 40°28' E 024°01'5 9.9
2017-Sep-16 16:00N 40°25' E 023°56'1 0.1
2017-Sep-16 03:52N 40°26' E 023°57'3 9.7
2017-Sep-16 03:30N 40°27' E 024°01'4 1.1
2017-Sep-15 23:29N 40°25' E 024°06'4 6.5
2017-Sep-15 22:55N 40°27' E 024°02'4 8.9
2017-Sep-15 22:30N 40°26' E 023°57'4 7.2
2017-Sep-15 21:58N 40°24' E 023°54'3 7.2
2017-Sep-15 21:30N 40°26' E 023°57'4 9.0
2017-Sep-15 21:00N 40°27' E 024°03'2 4.4
2017-Sep-15 20:29N 40°25' E 024°05'0 0.2
2017-Sep-15 19:59N 40°25' E 024°05'0 0.8
2017-Sep-15 19:30N 40°25' E 024°06'0 0.2
2017-Sep-15 18:58N 40°25' E 024°06'0 0.0
2017-Sep-15 17:37N 40°25' E 024°06'0 1.8
2017-Sep-15 17:30N 40°25' E 024°06'1 1.2
2017-Sep-15 17:00N 40°26' E 024°05'4 8.2
2017-Sep-15 16:30N 40°27' E 024°00'510.0
2017-Sep-15 16:00N 40°24' E 023°55'2 0.2
2017-Sep-15 02:23N 40°26' E 023°57'4 9.2
2017-Sep-15 01:59N 40°28' E 024°02'2 0.5
2017-Sep-14 22:54N 40°27' E 024°03'0 0.7
2017-Sep-14 22:30N 40°27' E 024°03'2 3.1
2017-Sep-14 22:00N 40°27' E 024°05'4 7.3
2017-Sep-14 21:30N 40°28' E 024°00'1 1.4
2017-Sep-14 21:00N 40°28' E 024°01'3 5.2
2017-Sep-14 20:27N 40°27' E 024°05'0 0.3
2017-Sep-14 20:00N 40°27' E 024°05'0 0.3
2017-Sep-14 18:43N 40°27' E 024°05'0 0.0
2017-Sep-14 18:19N 40°27' E 024°05'0 0.4
2017-Sep-14 17:59N 40°27' E 024°05'1 2.6
2017-Sep-14 17:30N 40°28' E 024°06'1 1.2
2017-Sep-14 17:00N 40°28' E 024°06'4 7.9
2017-Sep-14 16:30N 40°28' E 024°00'5 9.3
2017-Sep-14 16:00N 40°25' E 023°55'  
Track history (hours):
 
Tides and Currents Weather Stations Pressure Air Temp Water Temp Dewpoint Dewpoint Depression Visibility Wind Speed Wind Dir Waves Ship Positions

Capetan Giannos

Last reported at 2017-Sep-24 12:02 UTC. Time now 2017-Oct-19 05:46 UTC.
Position N 39°57' E 024°01'.
Warning: this ship's position is 24 days out of date.

Length 26 m; draft 2.5 m.

Type: Fishing. MMSI: 237168000.

Date/timePositionNaut miles runAvg speedWind from/ knotsBaromVisibWave heightAir tempDewpointWater temp
2017-Sep-24 12:02N 39°57' E 024°01'010.3
2017-Sep-24 12:01N 39°58' E 024°02'510.1
2017-Sep-24 11:30N 40°01' E 024°07'5 9.7
2017-Sep-24 11:00N 40°03' E 024°12'12 8.8
2017-Sep-24 09:41N 40°10' E 024°24'2 9.9
2017-Sep-24 09:31N 40°12' E 024°24'5 9.7
2017-Sep-24 09:00N 40°17' E 024°23'5 9.9
2017-Sep-24 08:31N 40°22' E 024°23'1310.0
2017-Sep-24 07:13N 40°35' E 024°20'4 9.0
2017-Sep-24 06:48N 40°39' E 024°20'3 9.4
2017-Sep-24 06:30N 40°41' E 024°21'5 9.9
2017-Sep-24 06:00N 40°46' E 024°21'4 9.1
2017-Sep-24 05:30N 40°51' E 024°19'0 0.2
2017-Sep-24 04:44N 40°51' E 024°19'1 3.9
2017-Sep-24 04:31N 40°50' E 024°20'5 9.2
2017-Sep-24 04:01N 40°46' E 024°22'5 9.8
2017-Sep-24 03:30N 40°41' E 024°23'3 6.6
2017-Sep-24 03:00N 40°38' E 024°24'0 0.4
2017-Sep-24 02:30N 40°38' E 024°24'0 0.5
2017-Sep-24 02:00N 40°37' E 024°24'0 0.9
2017-Sep-24 01:27N 40°37' E 024°25'0 0.0
2017-Sep-24 00:45N 40°37' E 024°25'0 0.0
2017-Sep-24 00:27N 40°37' E 024°25'0 0.0
2017-Sep-23 23:54N 40°37' E 024°25'0 0.0
2017-Sep-23 23:30N 40°37' E 024°25'0 0.0
2017-Sep-23 22:36N 40°37' E 024°25'0 0.0
2017-Sep-23 22:24N 40°37' E 024°25'0 0.0
2017-Sep-23 21:54N 40°37' E 024°25'0 0.0
2017-Sep-23 21:27N 40°37' E 024°25'0 0.0
2017-Sep-23 20:54N 40°37' E 024°25'  
2017-Sep-20 18:39N 40°33' E 023°59'0 1.1
2017-Sep-20 18:30N 40°33' E 023°59'0 0.1
2017-Sep-20 17:50N 40°33' E 023°59'0 1.2
2017-Sep-20 17:30N 40°33' E 023°59'5 9.4
2017-Sep-20 16:57N 40°28' E 023°56'4 9.5
2017-Sep-20 16:30N 40°24' E 023°54'5 0.3
2017-Sep-19 23:06N 40°23' E 023°60'0 2.1
2017-Sep-19 22:59N 40°23' E 023°60'3 5.7
2017-Sep-19 22:30N 40°23' E 023°56'1 2.0
2017-Sep-19 21:59N 40°23' E 023°57'1 2.1
2017-Sep-19 21:30N 40°24' E 023°58'5 9.9
2017-Sep-19 21:00N 40°29' E 023°59'4 6.6
2017-Sep-19 20:24N 40°32' E 023°60'0 0.2
2017-Sep-19 19:54N 40°33' E 023°59'0 0.1
2017-Sep-19 19:30N 40°32' E 023°59'0 0.7
2017-Sep-19 18:49N 40°32' E 023°59'0 0.0
2017-Sep-19 18:13N 40°32' E 023°59'0 0.1
2017-Sep-19 17:37N 40°32' E 023°59'0 0.1
2017-Sep-19 17:29N 40°32' E 023°59'0 0.2
2017-Sep-19 17:00N 40°32' E 023°59'5 9.1
2017-Sep-19 16:30N 40°28' E 023°56'5 0.4
2017-Sep-19 03:32N 40°23' E 023°57'1 9.3
2017-Sep-19 03:28N 40°23' E 023°58'0 0.4
2017-Sep-19 02:43N 40°23' E 023°59'0 0.1
2017-Sep-19 00:14N 40°23' E 023°58'0 0.1
2017-Sep-18 23:56N 40°23' E 023°58'0 0.0
2017-Sep-18 23:29N 40°23' E 023°58'0 0.1
2017-Sep-18 22:59N 40°23' E 023°58'0 0.0
2017-Sep-18 22:29N 40°23' E 023°58'0 0.0
2017-Sep-18 21:59N 40°23' E 023°58'0 0.2
2017-Sep-18 21:30N 40°23' E 023°58'5 8.9
2017-Sep-18 21:00N 40°28' E 023°60'5 7.7
2017-Sep-18 20:24N 40°31' E 024°04'0 0.2
2017-Sep-18 20:00N 40°31' E 024°04'1 1.1
2017-Sep-18 19:30N 40°30' E 024°04'0 0.2
2017-Sep-18 19:00N 40°30' E 024°04'0 0.0
2017-Sep-18 18:30N 40°30' E 024°04'0 0.1
2017-Sep-18 18:00N 40°30' E 024°04'1 1.9
2017-Sep-18 17:30N 40°30' E 024°03'510.2
2017-Sep-18 17:00N 40°27' E 023°58'4 8.0
2017-Sep-18 16:29N 40°24' E 023°54'0 0.0
2017-Sep-18 04:25N 40°24' E 023°54'0 0.5
2017-Sep-18 03:59N 40°24' E 023°54'0 0.2
2017-Sep-18 03:30N 40°24' E 023°54'1 1.1
2017-Sep-18 03:00N 40°24' E 023°54'5 9.5
2017-Sep-18 02:31N 40°27' E 023°59'5 9.8
2017-Sep-18 02:00N 40°30' E 024°04'0 0.3
2017-Sep-18 01:22N 40°30' E 024°04'0 0.2
2017-Sep-18 01:01N 40°30' E 024°04'1 0.9
2017-Sep-18 00:26N 40°30' E 024°04'0 0.0
2017-Sep-17 23:53N 40°30' E 024°04'0 0.1
2017-Sep-17 23:30N 40°30' E 024°04'4 8.9
2017-Sep-17 23:01N 40°27' E 023°59'510.4
2017-Sep-17 22:31N 40°24' E 023°54'0 0.9
2017-Sep-17 22:00N 40°24' E 023°54'0 0.0
2017-Sep-17 21:31N 40°24' E 023°54'4 8.5
2017-Sep-17 21:01N 40°27' E 023°58'5 9.8
2017-Sep-17 20:31N 40°30' E 024°03'2 2.9
2017-Sep-17 19:59N 40°31' E 024°04'0 0.2
2017-Sep-17 19:30N 40°30' E 024°04'1 0.9
2017-Sep-17 18:58N 40°30' E 024°04'0 0.0
2017-Sep-17 18:31N 40°30' E 024°04'0 0.0
2017-Sep-17 17:58N 40°30' E 024°04'0 0.9
2017-Sep-17 17:30N 40°30' E 024°05'6 0.3
2017-Sep-16 22:12N 40°25' E 024°09'0 0.0
2017-Sep-16 22:00N 40°25' E 024°09'0 0.0
2017-Sep-16 21:30N 40°25' E 024°09'0 0.0
2017-Sep-16 21:00N 40°25' E 024°09'0 0.0
2017-Sep-16 20:30N 40°25' E 024°09'0 0.0
2017-Sep-16 20:00N 40°25' E 024°09'0 0.0
2017-Sep-16 19:21N 40°25' E 024°09'0 0.0
2017-Sep-16 19:00N 40°25' E 024°09'0 0.0
2017-Sep-16 18:30N 40°25' E 024°09'0 0.0
2017-Sep-16 18:01N 40°25' E 024°09'0 0.5
2017-Sep-16 17:30N 40°25' E 024°09'1 3.0
2017-Sep-16 17:01N 40°26' E 024°07'5 9.5
2017-Sep-16 16:31N 40°28' E 024°01'5 9.9
2017-Sep-16 16:00N 40°25' E 023°56'1 0.1
2017-Sep-16 03:52N 40°26' E 023°57'3 9.7
2017-Sep-16 03:30N 40°27' E 024°01'4 1.1
2017-Sep-15 23:29N 40°25' E 024°06'4 6.5
2017-Sep-15 22:55N 40°27' E 024°02'4 8.9
2017-Sep-15 22:30N 40°26' E 023°57'4 7.2
2017-Sep-15 21:58N 40°24' E 023°54'3 7.2
2017-Sep-15 21:30N 40°26' E 023°57'4 9.0
2017-Sep-15 21:00N 40°27' E 024°03'2 4.4
2017-Sep-15 20:29N 40°25' E 024°05'0 0.2
2017-Sep-15 19:59N 40°25' E 024°05'0 0.8
2017-Sep-15 19:30N 40°25' E 024°06'0 0.2
2017-Sep-15 18:58N 40°25' E 024°06'0 0.0
2017-Sep-15 17:37N 40°25' E 024°06'0 1.8
2017-Sep-15 17:30N 40°25' E 024°06'1 1.2
2017-Sep-15 17:00N 40°26' E 024°05'4 8.2
2017-Sep-15 16:30N 40°27' E 024°00'510.0
2017-Sep-15 16:00N 40°24' E 023°55'2 0.2
2017-Sep-15 02:23N 40°26' E 023°57'4 9.2
2017-Sep-15 01:59N 40°28' E 024°02'2 0.5
2017-Sep-14 22:54N 40°27' E 024°03'0 0.7
2017-Sep-14 22:30N 40°27' E 024°03'2 3.1
2017-Sep-14 22:00N 40°27' E 024°05'4 7.3
2017-Sep-14 21:30N 40°28' E 024°00'1 1.4
2017-Sep-14 21:00N 40°28' E 024°01'3 5.2
2017-Sep-14 20:27N 40°27' E 024°05'0 0.3
2017-Sep-14 20:00N 40°27' E 024°05'0 0.3
2017-Sep-14 18:43N 40°27' E 024°05'0 0.0
2017-Sep-14 18:19N 40°27' E 024°05'0 0.4
2017-Sep-14 17:59N 40°27' E 024°05'1 2.6
2017-Sep-14 17:30N 40°28' E 024°06'1 1.2
2017-Sep-14 17:00N 40°28' E 024°06'4 7.9
2017-Sep-14 16:30N 40°28' E 024°00'5 9.3
2017-Sep-14 16:00N 40°25' E 023°55'  

Dump ship's entire track history